El Palomar, Argentina

11:39 PM ART on November 22, 2014 (GMT -0300)
IBUENOSA148 | Change Station
CLOSE
Current Station
Personal Weather Station
Location: Villa Sarmiento, BUENOS AIRES
Elevation: 85 ft
Nearby Weather Stations

Elev 85 ft 34.63 °S, 58.57 °W | Updated 0 second ago

Clear
Clear
67.6 °F
Feels Like 67.6 °F
N
7.6
Wind Variable Wind from WSW
Gusts 9.2 mph

Today
High -- | Low -- °F
--% Chance of Precip.
Yesterday
High -- | Low -- °F
Precip. -- in
5:37 AM 7:44 PM
New Moon, 0% visible
Pressure 29.92 in
Visibility -9999.0 miles
Clouds
Dew Point 55 °F
Humidity 64%
Rainfall 0.09 in
Snow Depth Not available.
UV Not available.
Pollen Not available.
Air Quality Not available.
Flu Activity Not available.
METAR SADF 230200Z 32005KT CAVOK 17/13 Q1013

More Conditions Fewer Conditions

Pressure 29.92 in
Visibility -9999.0 miles
Clouds
Dew Point 55 °F
Humidity 64%
Rainfall 0.09 in
Snow Depth Not available.
UV Not available.
Pollen Not available.
Air Quality Not available.
Flu Activity Not available.
METAR SADF 230200Z 32005KT CAVOK 17/13 Q1013

More Conditions Fewer Conditions

10-Day Weather Forecast

Almanac

Astronomy

Nov. 22, 2014 Rise Set
Actual Time
Civil Twilight
Nautical Twilight
Astronomical Twilight
Moon
Length of Visible Light
Length of Day
Tomorrow will be .
, % of the Moon is Illuminated

Today's Extremes

Country Highs Country Lows

Community

WunderPhotos

Upload Photos

1,772,977 photos uploaded!

WunderBlogs® & News

Nearby

Air Quality

  Air Quality AQ Index Pollutant
Not available.

Snow Depth

Station Depth Elevation

Earthquake Activity

City Distance Mag. Time & Date
Minimum magnitude displayed is 2.5.

Coastal Water Temperatures

Place Temperature

Nearby Weather Stations